Time;durP1;ratioP1;P1;durP2;ratioP2;P2;SDS_P1;SDS_P2;PMS_P1;PMS_P2;Temp;Humidity;BMP_temperature;BMP_pressure;BME280_temperature;BME280_humidity;BME280_pressure;Samples;Min_cycle;Max_cycle;Signal;HPM_P1;HPM_P2
2021/07/21 00:02:16;;;;;;;;;;;;;;;13.48;78.56;99965.78;4974596;28;20056;-61
2021/07/21 00:04:44;;;;;;;;;;;;;;;13.39;78.28;99961.84;4975087;28;20012;-61
2021/07/21 00:07:11;;;;;;;;;;;;;;;13.36;78.49;99957.78;4974582;28;19918;-61
2021/07/21 00:09:39;;;;;;;;;;;;;;;13.35;79.14;99966.09;4974927;28;19953;-61
2021/07/21 00:14:49;;;;;;;;;;;;;;;13.31;79.04;99964.97;4974992;28;20056;-61
2021/07/21 00:17:26;;;;;;;;;;;;;;;13.28;79.05;99968.09;4974353;28;20352;-60
2021/07/21 00:20:07;;;;;;;;;;;;;;;13.15;79.17;99966.50;4974724;28;19917;-61
2021/07/21 00:22:53;;;;;;;;;;;;;;;13.19;79.28;99958.78;4973246;28;19977;-61
2021/07/21 00:25:18;;;;;;;;;;;;;;;13.22;78.71;99964.50;4973927;28;19952;-61
2021/07/21 00:27:44;;;;;;;;;;;;;;;13.20;78.27;99960.41;4974618;28;19921;-61
2021/07/21 00:30:11;;;;;;;;;;;;;;;13.17;78.32;99951.75;4976717;28;19921;-61
2021/07/21 00:32:36;;;;;;;;;;;;;;;13.13;77.43;99953.31;4974649;28;19918;-61
2021/07/21 00:35:03;;;;;;;;;;;;;;;13.14;77.34;99948.75;4974202;28;20308;-60
2021/07/21 00:37:31;;;;;;;;;;;;;;;13.05;77.14;99956.38;4974665;28;20387;-60
2021/07/21 00:39:57;;;;;;;;;;;;;;;12.99;77.23;99946.59;4973246;28;19956;-61
2021/07/21 00:42:25;;;;;;;;;;;;;;;12.95;77.71;99948.09;4974219;28;19957;-61
2021/07/21 00:44:53;;;;;;;;;;;;;;;12.84;78.49;99944.41;4974579;28;19921;-61
2021/07/21 00:47:21;;;;;;;;;;;;;;;12.88;77.94;99950.13;4974080;28;19955;-61
2021/07/21 00:49:46;;;;;;;;;;;;;;;12.77;78.08;99948.31;4973121;28;20365;-61
2021/07/21 00:52:17;;;;;;;;;;;;;;;12.83;78.00;99945.47;4974125;28;19929;-61
2021/07/21 00:54:44;;;;;;;;;;;;;;;12.81;78.05;99950.28;4974442;28;19968;-61
2021/07/21 00:57:09;;;;;;;;;;;;;;;12.73;78.18;99939.91;4974098;28;19918;-61
2021/07/21 00:59:34;;;;;;;;;;;;;;;12.62;78.97;99944.25;4973203;28;20331;-61
2021/07/21 01:02:04;;;;;;;;;;;;;;;12.62;78.51;99938.88;4972660;28;19918;-60
2021/07/21 01:04:32;;;;;;;;;;;;;;;12.67;78.41;99938.16;4974740;28;19914;-61
2021/07/21 01:07:00;;;;;;;;;;;;;;;12.62;78.71;99949.63;4973961;28;20373;-61
2021/07/21 01:09:26;;;;;;;;;;;;;;;12.64;79.26;99939.44;4974423;28;19914;-61
2021/07/21 01:12:06;;;;;;;;;;;;;;;12.61;79.02;99937.25;4973872;28;20273;-61
2021/07/21 01:14:50;;;;;;;;;;;;;;;12.69;80.68;99944.94;4973589;28;20296;-61
2021/07/21 01:17:22;;;;;;;;;;;;;;;12.60;78.58;99943.66;4977612;28;20284;-61
2021/07/21 01:19:59;;;;;;;;;;;;;;;12.52;78.77;99938.66;4978075;28;19921;-61
2021/07/21 01:22:25;;;;;;;;;;;;;;;12.56;79.97;99937.16;4977141;28;20435;-60
2021/07/21 01:25:07;;;;;;;;;;;;;;;12.52;79.23;99936.78;4976830;28;19949;-61
2021/07/21 01:27:47;;;;;;;;;;;;;;;12.47;79.98;99935.88;4977341;28;19922;-60
2021/07/21 01:30:17;;;;;;;;;;;;;;;12.48;79.65;99934.81;4974091;28;19914;-60
2021/07/21 01:32:44;;;;;;;;;;;;;;;12.29;80.08;99934.97;4976784;28;19922;-61
2021/07/21 01:35:11;;;;;;;;;;;;;;;12.32;80.57;99943.63;4977428;28;20391;-61
2021/07/21 01:37:36;;;;;;;;;;;;;;;12.32;80.78;99946.31;4977756;28;19946;-61
2021/07/21 01:40:06;;;;;;;;;;;;;;;12.28;80.54;99941.41;4976132;28;20322;-61
2021/07/21 01:42:31;;;;;;;;;;;;;;;12.25;80.50;99938.38;4976411;28;19914;-60
2021/07/21 01:44:56;;;;;;;;;;;;;;;12.19;80.91;99945.50;4977550;28;20283;-61
2021/07/21 01:47:25;;;;;;;;;;;;;;;12.21;81.77;99943.41;4975920;28;20017;-60
2021/07/21 01:49:50;;;;;;;;;;;;;;;12.04;81.17;99945.97;4977272;28;19925;-60
2021/07/21 01:52:24;;;;;;;;;;;;;;;12.13;82.49;99946.47;4975857;28;19918;-61
2021/07/21 01:54:50;;;;;;;;;;;;;;;12.12;81.89;99946.69;4976196;28;19914;-61
2021/07/21 01:57:15;;;;;;;;;;;;;;;12.09;82.53;99943.41;4975697;28;19918;-61
2021/07/21 01:59:42;;;;;;;;;;;;;;;12.14;83.34;99942.72;4977303;28;19953;-61
2021/07/21 02:02:10;;;;;;;;;;;;;;;12.07;82.23;99942.00;4975705;28;19925;-61
2021/07/21 02:04:36;;;;;;;;;;;;;;;11.98;82.35;99943.41;4976167;28;19954;-61
2021/07/21 02:07:11;;;;;;;;;;;;;;;11.97;83.06;99941.78;4976743;28;19984;-60
2021/07/21 02:09:39;;;;;;;;;;;;;;;11.98;82.64;99951.47;4977230;28;19914;-61
2021/07/21 02:12:05;;;;;;;;;;;;;;;11.93;83.14;99945.97;4975367;28;19914;-61
2021/07/21 02:14:30;;;;;;;;;;;;;;;11.92;83.76;99945.16;4977053;28;19921;-61
2021/07/21 02:16:55;;;;;;;;;;;;;;;11.87;83.50;99947.75;4976686;28;19914;-61
2021/07/21 02:19:21;;;;;;;;;;;;;;;11.82;83.25;99944.91;4977152;28;19937;-60
2021/07/21 02:21:49;;;;;;;;;;;;;;;11.74;83.20;99939.88;4975362;28;19949;-61
2021/07/21 02:24:14;;;;;;;;;;;;;;;11.63;84.63;99936.13;4976919;28;19910;-61
2021/07/21 02:26:46;;;;;;;;;;;;;;;11.73;84.00;99935.53;4974099;28;19972;-61
2021/07/21 02:29:11;;;;;;;;;;;;;;;11.88;83.30;99930.56;4975527;28;19968;-61
2021/07/21 02:31:41;;;;;;;;;;;;;;;11.79;83.37;99940.00;4975085;28;19922;-61
2021/07/21 02:34:07;;;;;;;;;;;;;;;11.74;83.91;99932.63;4979225;28;20006;-61
2021/07/21 02:36:35;;;;;;;;;;;;;;;11.68;83.88;99938.13;4975113;28;20371;-61
2021/07/21 02:39:02;;;;;;;;;;;;;;;11.58;84.29;99933.31;4976591;28;19914;-60
2021/07/21 02:41:30;;;;;;;;;;;;;;;11.62;84.62;99937.19;4976075;28;19922;-60
2021/07/21 02:43:55;;;;;;;;;;;;;;;11.63;84.29;99936.13;4976460;28;19914;-61
2021/07/21 02:46:27;;;;;;;;;;;;;;;11.56;84.00;99936.25;4976016;28;19973;-61
2021/07/21 02:48:52;;;;;;;;;;;;;;;11.52;84.08;99937.75;4976062;28;20361;-61
2021/07/21 02:51:22;;;;;;;;;;;;;;;11.40;84.78;99932.34;4974815;28;19918;-61
2021/07/21 02:54:05;;;;;;;;;;;;;;;11.35;84.60;99934.91;4975050;28;19917;-61
2021/07/21 02:56:30;;;;;;;;;;;;;;;11.30;85.19;99942.84;4974667;28;19924;-61
2021/07/21 02:59:01;;;;;;;;;;;;;;;11.18;84.86;99939.31;4975139;28;20004;-61
2021/07/21 03:01:26;;;;;;;;;;;;;;;11.18;84.60;99940.16;4975756;28;19997;-61
2021/07/21 03:03:54;;;;;;;;;;;;;;;11.45;84.74;99942.41;4974871;28;19968;-61
2021/07/21 03:06:20;;;;;;;;;;;;;;;11.46;84.53;99936.00;4974433;28;19918;-61
2021/07/21 03:08:48;;;;;;;;;;;;;;;11.29;84.84;99941.22;4974816;28;20316;-61
2021/07/21 03:11:14;;;;;;;;;;;;;;;11.24;84.71;99951.81;4975699;28;19918;-61
2021/07/21 03:13:43;;;;;;;;;;;;;;;11.19;85.12;99952.50;4976069;28;20343;-61
2021/07/21 03:16:08;;;;;;;;;;;;;;;11.27;85.33;99943.31;4975618;28;20001;-61
2021/07/21 03:18:37;;;;;;;;;;;;;;;11.27;85.31;99947.84;4975871;28;20003;-61
2021/07/21 03:21:03;;;;;;;;;;;;;;;11.27;86.23;99948.66;4975614;28;20284;-61
2021/07/21 03:23:34;;;;;;;;;;;;;;;11.00;85.56;99959.75;4974829;28;19914;-61
2021/07/21 03:26:00;;;;;;;;;;;;;;;11.05;86.09;99950.22;4974008;28;20373;-60
2021/07/21 03:28:29;;;;;;;;;;;;;;;11.08;86.48;99955.13;4975674;28;19918;-61
2021/07/21 03:30:54;;;;;;;;;;;;;;;11.02;86.13;99962.22;4974003;28;20012;-61
2021/07/21 03:33:23;;;;;;;;;;;;;;;11.08;85.73;99961.31;4974335;28;19949;-61
2021/07/21 03:35:48;;;;;;;;;;;;;;;11.09;86.23;99962.16;4975202;28;19960;-61
2021/07/21 03:38:17;;;;;;;;;;;;;;;11.12;85.43;99959.00;4974067;28;19914;-61
2021/07/21 03:40:42;;;;;;;;;;;;;;;10.98;85.13;99961.88;4973863;28;20018;-60
2021/07/21 03:43:13;;;;;;;;;;;;;;;10.97;86.02;99968.28;4974238;28;19953;-61
2021/07/21 03:45:39;;;;;;;;;;;;;;;11.06;85.88;99959.91;4973784;28;19949;-61
2021/07/21 03:48:07;;;;;;;;;;;;;;;11.20;85.14;99964.03;4974798;28;20387;-61
2021/07/21 03:50:32;;;;;;;;;;;;;;;11.31;85.68;99960.59;4974671;28;19955;-61
2021/07/21 03:53:03;;;;;;;;;;;;;;;11.39;84.83;99960.25;4974249;28;19918;-61
2021/07/21 03:55:30;;;;;;;;;;;;;;;11.49;84.24;99961.56;4973832;28;19925;-61
2021/07/21 03:57:58;;;;;;;;;;;;;;;11.40;83.80;99961.88;4975386;28;20352;-61
2021/07/21 04:00:24;;;;;;;;;;;;;;;11.73;82.39;99963.25;4973535;28;20039;-61
2021/07/21 04:02:53;;;;;;;;;;;;;;;12.07;80.23;99963.50;4975355;28;19953;-61
2021/07/21 04:05:18;;;;;;;;;;;;;;;12.27;78.86;99974.72;4973426;28;20296;-61
2021/07/21 04:07:47;;;;;;;;;;;;;;;12.65;77.19;99972.53;4973820;28;19914;-62
2021/07/21 04:10:12;;;;;;;;;;;;;;;12.01;79.92;99975.19;4973441;28;19920;-60
2021/07/21 04:12:45;;;;;;;;;;;;;;;12.15;79.24;99968.50;4975045;28;19921;-61
2021/07/21 04:15:11;;;;;;;;;;;;;;;12.52;77.99;99979.81;4974534;28;19914;-61
2021/07/21 04:17:36;;;;;;;;;;;;;;;13.08;75.21;99979.28;4975280;28;19917;-61
2021/07/21 04:20:01;;;;;;;;;;;;;;;13.73;72.32;99988.84;4973360;28;19918;-61
2021/07/21 04:22:33;;;;;;;;;;;;;;;14.42;69.53;99989.31;4973770;28;19910;-61
2021/07/21 04:24:59;;;;;;;;;;;;;;;15.06;67.17;99988.78;4974863;28;20310;-61
2021/07/21 04:27:27;;;;;;;;;;;;;;;15.60;65.26;99993.38;4974199;28;20364;-60
2021/07/21 04:29:53;;;;;;;;;;;;;;;16.06;63.61;99991.03;4977361;28;20053;-61
2021/07/21 04:32:21;;;;;;;;;;;;;;;16.50;61.69;99990.78;4973063;28;19991;-60
2021/07/21 04:34:47;;;;;;;;;;;;;;;16.05;63.56;100000.25;4974753;28;19936;-61
2021/07/21 04:37:19;;;;;;;;;;;;;;;16.84;60.66;99993.09;4974248;28;20376;-60
2021/07/21 04:39:44;;;;;;;;;;;;;;;17.14;59.02;100002.41;4974560;28;20320;-61
2021/07/21 04:42:12;;;;;;;;;;;;;;;16.89;59.99;100008.56;4974189;28;19918;-60
2021/07/21 04:44:39;;;;;;;;;;;;;;;17.36;58.09;100013.84;4974572;28;19917;-61
2021/07/21 04:47:07;;;;;;;;;;;;;;;17.03;58.63;100021.34;4974139;28;19940;-61
2021/07/21 04:49:32;;;;;;;;;;;;;;;17.61;57.19;100020.38;4974977;28;19984;-61
2021/07/21 04:52:03;;;;;;;;;;;;;;;17.76;57.00;100022.28;4978194;28;20396;-61
2021/07/21 04:54:29;;;;;;;;;;;;;;;17.99;56.76;100023.66;4977280;28;20373;-61
2021/07/21 04:56:57;;;;;;;;;;;;;;;17.61;57.91;100020.38;4978121;28;20274;-61
2021/07/21 04:59:22;;;;;;;;;;;;;;;17.98;57.44;100024.75;4978428;28;19918;-61
2021/07/21 05:01:51;;;;;;;;;;;;;;;19.21;53.56;100027.13;4978192;28;19918;-61
2021/07/21 05:04:17;;;;;;;;;;;;;;;19.26;52.42;100032.53;4978699;28;19914;-61
2021/07/21 05:06:48;;;;;;;;;;;;;;;19.69;51.84;100032.84;4977946;28;20356;-60
2021/07/21 05:09:13;;;;;;;;;;;;;;;20.22;50.12;100036.47;4978181;28;19961;-61
2021/07/21 05:11:41;;;;;;;;;;;;;;;20.46;48.92;100028.31;4977876;28;19918;-61
2021/07/21 05:14:07;;;;;;;;;;;;;;;20.11;50.41;100026.78;4978512;28;19913;-61
2021/07/21 05:16:36;;;;;;;;;;;;;;;20.19;49.65;100033.50;4977770;28;20392;-61
2021/07/21 05:19:01;;;;;;;;;;;;;;;20.37;49.22;100040.97;4978178;28;19992;-61
2021/07/21 05:21:33;;;;;;;;;;;;;;;20.80;48.45;100038.34;4977687;28;19925;-61
2021/07/21 05:23:58;;;;;;;;;;;;;;;21.48;46.22;100039.13;4977937;28;19914;-60
2021/07/21 05:26:26;;;;;;;;;;;;;;;22.05;45.23;100044.50;4977629;28;19918;-61
2021/07/21 05:28:51;;;;;;;;;;;;;;;22.80;43.26;100048.88;4977814;28;20391;-61
2021/07/21 05:31:22;;;;;;;;;;;;;;;22.64;43.68;100047.53;4977659;28;19918;-61
2021/07/21 05:33:48;;;;;;;;;;;;;;;21.97;44.68;100048.72;4977863;28;19910;-60
2021/07/21 05:36:20;;;;;;;;;;;;;;;22.48;44.34;100053.31;4977427;28;20345;-60
2021/07/21 05:38:46;;;;;;;;;;;;;;;22.44;44.38;100052.31;4977924;28;19910;-61
2021/07/21 05:41:11;;;;;;;;;;;;;;;22.54;43.74;100062.19;4977322;28;19924;-60
2021/07/21 05:43:36;;;;;;;;;;;;;;;22.03;45.56;100052.97;4977771;28;19910;-60
2021/07/21 05:46:05;;;;;;;;;;;;;;;23.30;42.43;100062.63;4975948;28;20370;-61
2021/07/21 05:48:30;;;;;;;;;;;;;;;23.37;42.63;100065.75;4977300;28;19925;-59
2021/07/21 05:51:01;;;;;;;;;;;;;;;23.67;42.01;100060.69;4977247;28;19918;-59
2021/07/21 05:53:26;;;;;;;;;;;;;;;24.47;40.71;100053.53;4976294;28;19914;-59
2021/07/21 05:55:55;;;;;;;;;;;;;;;25.51;38.29;100057.69;4977357;28;19922;-58
2021/07/21 05:58:20;;;;;;;;;;;;;;;25.38;37.89;100060.25;4976223;28;19914;-59
2021/07/21 06:00:51;;;;;;;;;;;;;;;25.30;38.39;100060.25;4976911;28;19925;-61
2021/07/21 06:03:20;;;;;;;;;;;;;;;24.99;38.07;100066.63;4977314;28;19921;-59
2021/07/21 06:05:45;;;;;;;;;;;;;;;24.58;39.35;100051.31;4976906;28;20009;-61
2021/07/21 06:08:10;;;;;;;;;;;;;;;24.85;38.58;100061.25;4977171;28;20069;-60
2021/07/21 06:10:42;;;;;;;;;;;;;;;24.90;38.93;100063.84;4976691;28;19925;-61
2021/07/21 06:13:07;;;;;;;;;;;;;;;24.92;39.35;100061.59;4959998;28;19980;-59
2021/07/21 06:15:35;;;;;;;;;;;;;;;25.72;38.01;100061.41;4976803;28;20376;-61
2021/07/21 06:18:01;;;;;;;;;;;;;;;26.92;35.94;100059.84;4977087;28;19914;-59
2021/07/21 06:20:32;;;;;;;;;;;;;;;25.98;37.55;100069.66;4976583;28;19921;-59
2021/07/21 06:22:57;;;;;;;;;;;;;;;26.50;37.05;100073.41;4975771;28;20428;-59
2021/07/21 06:25:25;;;;;;;;;;;;;;;26.22;37.04;100068.31;4976523;28;20000;-59
2021/07/21 06:27:51;;;;;;;;;;;;;;;26.53;36.29;100087.31;4976896;28;19922;-61
2021/07/21 06:30:19;;;;;;;;;;;;;;;26.79;36.72;100079.00;4976660;28;19914;-60
2021/07/21 06:32:44;;;;;;;;;;;;;;;26.79;36.31;100084.50;4977413;28;19918;-60
2021/07/21 06:35:16;;;;;;;;;;;;;;;27.46;35.76;100084.78;4976316;28;19914;-60
2021/07/21 06:37:41;;;;;;;;;;;;;;;26.46;37.78;100090.56;4976972;28;19910;-60
2021/07/21 06:40:09;;;;;;;;;;;;;;;26.61;37.02;100097.50;4977111;28;20311;-60
2021/07/21 06:42:34;;;;;;;;;;;;;;;25.98;38.52;100101.81;4977805;28;19917;-60
2021/07/21 06:45:06;;;;;;;;;;;;;;;26.71;37.71;100099.09;4976437;28;20276;-60
2021/07/21 06:47:31;;;;;;;;;;;;;;;26.02;37.67;100100.03;4976368;28;20289;-60
2021/07/21 06:49:59;;;;;;;;;;;;;;;27.42;35.70;100101.16;4976031;28;19917;-60
2021/07/21 06:52:25;;;;;;;;;;;;;;;27.92;34.84;100105.00;4975965;28;19925;-60
2021/07/21 06:54:57;;;;;;;;;;;;;;;27.20;35.61;100096.75;4976402;28;19914;-61
2021/07/21 06:57:22;;;;;;;;;;;;;;;25.89;38.64;100109.25;4975920;28;19917;-60
2021/07/21 06:59:50;;;;;;;;;;;;;;;28.18;33.89;100119.34;4976256;28;19925;-60
2021/07/21 07:02:16;;;;;;;;;;;;;;;28.15;34.12;100120.00;4975834;28;20324;-60
2021/07/21 07:04:44;;;;;;;;;;;;;;;27.44;34.94;100120.09;4976295;28;20383;-61
2021/07/21 07:07:09;;;;;;;;;;;;;;;28.40;33.39;100125.59;4975719;28;19973;-60
2021/07/21 07:09:41;;;;;;;;;;;;;;;28.67;32.42;100123.41;4976120;28;20304;-60
2021/07/21 07:12:06;;;;;;;;;;;;;;;28.29;33.64;100125.25;4975187;28;19946;-61
2021/07/21 07:14:35;;;;;;;;;;;;;;;28.04;33.28;100118.84;4976061;28;19953;-60
2021/07/21 07:17:00;;;;;;;;;;;;;;;27.70;33.54;100119.91;4975620;28;19918;-60
2021/07/21 07:19:31;;;;;;;;;;;;;;;28.92;31.78;100119.50;4976215;28;19910;-60
2021/07/21 07:21:59;;;;;;;;;;;;;;;28.94;31.69;100122.75;4975471;28;19925;-61
2021/07/21 07:24:24;;;;;;;;;;;;;;;28.06;32.37;100132.28;4976026;28;19914;-60
2021/07/21 07:26:49;;;;;;;;;;;;;;;28.57;32.43;100119.94;4975275;28;19918;-60
2021/07/21 07:29:20;;;;;;;;;;;;;;;28.14;31.90;100123.13;4974741;28;20009;-61
2021/07/21 07:31:45;;;;;;;;;;;;;;;28.19;32.36;100122.91;4975342;28;20431;-60
2021/07/21 07:34:13;;;;;;;;;;;;;;;27.20;33.62;100123.47;4975784;28;20364;-60
2021/07/21 07:36:39;;;;;;;;;;;;;;;28.89;31.21;100116.66;4975309;28;19918;-60
2021/07/21 07:39:10;;;;;;;;;;;;;;;28.22;32.27;100113.16;4975479;28;20060;-60
2021/07/21 07:41:36;;;;;;;;;;;;;;;28.34;31.89;100113.19;4974028;28;20347;-60
2021/07/21 07:44:05;;;;;;;;;;;;;;;28.23;32.42;100118.34;4958234;28;20016;-60
2021/07/21 07:46:30;;;;;;;;;;;;;;;28.13;31.72;100116.81;4975020;28;19925;-60
2021/07/21 07:48:59;;;;;;;;;;;;;;;27.27;33.44;100104.50;4973510;28;19917;-60
2021/07/21 07:51:24;;;;;;;;;;;;;;;27.94;32.43;100108.22;4973636;28;19918;-60
2021/07/21 07:53:52;;;;;;;;;;;;;;;29.00;30.46;100109.50;4975470;28;19914;-60
2021/07/21 07:56:18;;;;;;;;;;;;;;;28.29;31.24;100107.91;4974870;28;20337;-60
2021/07/21 07:58:49;;;;;;;;;;;;;;;24.64;38.03;100104.88;4975109;28;20025;-60
2021/07/21 08:01:15;;;;;;;;;;;;;;;26.70;34.09;100099.41;4974611;28;20377;-61
2021/07/21 08:03:43;;;;;;;;;;;;;;;27.42;33.07;100098.41;4975222;28;19914;-60
2021/07/21 08:06:08;;;;;;;;;;;;;;;26.51;34.59;100097.84;4974765;28;20398;-59
2021/07/21 08:08:39;;;;;;;;;;;;;;;26.81;34.51;100098.72;4975133;28;19913;-60
2021/07/21 08:11:04;;;;;;;;;;;;;;;26.89;33.67;100097.06;4974761;28;20254;-60
2021/07/21 08:13:32;;;;;;;;;;;;;;;27.94;32.69;100087.00;4975032;28;19917;-60
2021/07/21 08:15:58;;;;;;;;;;;;;;;28.19;31.01;100089.84;4974536;28;20269;-60
2021/07/21 08:18:29;;;;;;;;;;;;;;;27.38;33.66;100091.13;4974857;28;19917;-60
2021/07/21 08:20:54;;;;;;;;;;;;;;;26.79;33.61;100087.25;4974723;28;19918;-60
2021/07/21 08:23:22;;;;;;;;;;;;;;;25.99;33.89;100095.19;4974702;28;19914;-60
2021/07/21 08:25:47;;;;;;;;;;;;;;;24.07;37.28;100088.25;4973599;28;19914;-59
2021/07/21 08:28:19;;;;;;;;;;;;;;;25.72;34.59;100080.63;4974868;28;19921;-60
2021/07/21 08:30:44;;;;;;;;;;;;;;;25.02;35.68;100087.94;4974342;28;20440;-59
2021/07/21 08:33:13;;;;;;;;;;;;;;;25.99;33.67;100082.25;4974585;28;19914;-59
2021/07/21 08:35:38;;;;;;;;;;;;;;;26.10;31.65;100087.41;4974354;28;19958;-59
2021/07/21 08:38:06;;;;;;;;;;;;;;;24.99;34.70;100096.78;4976956;28;19992;-59
2021/07/21 08:40:32;;;;;;;;;;;;;;;27.00;31.79;100094.75;4972913;28;19917;-60
2021/07/21 08:43:04;;;;;;;;;;;;;;;26.14;33.42;100093.88;4974502;28;20357;-59
2021/07/21 08:45:29;;;;;;;;;;;;;;;25.55;34.11;100094.34;4974125;28;19941;-59
2021/07/21 08:47:57;;;;;;;;;;;;;;;25.90;32.21;100095.19;4973158;28;20365;-59
2021/07/21 08:50:23;;;;;;;;;;;;;;;25.29;33.89;100091.59;4973945;28;20258;-59
2021/07/21 08:52:53;;;;;;;;;;;;;;;25.59;32.80;100103.56;4974605;28;19921;-59
2021/07/21 08:55:18;;;;;;;;;;;;;;;25.51;32.50;100098.84;4974032;28;20396;-60
2021/07/21 08:57:47;;;;;;;;;;;;;;;26.62;31.39;100098.31;4956872;28;19914;-59
2021/07/21 09:00:14;;;;;;;;;;;;;;;25.23;32.92;100104.63;4973133;28;20012;-59
2021/07/21 09:02:44;;;;;;;;;;;;;;;24.16;35.26;100099.25;4974595;28;19970;-59
2021/07/21 09:05:09;;;;;;;;;;;;;;;24.20;35.56;100109.25;4974184;28;20337;-59
2021/07/21 09:07:37;;;;;;;;;;;;;;;24.32;35.80;100104.03;4974389;28;20094;-59
2021/07/21 09:10:04;;;;;;;;;;;;;;;23.04;37.82;100093.25;4974126;28;19953;-60
2021/07/21 09:12:32;;;;;;;;;;;;;;;23.84;36.79;100096.44;4974274;28;19906;-59
2021/07/21 09:14:58;;;;;;;;;;;;;;;23.59;36.62;100095.09;4974532;28;19921;-59
2021/07/21 09:17:27;;;;;;;;;;;;;;;24.22;37.23;100098.00;4974077;28;19926;-59
2021/07/21 09:19:52;;;;;;;;;;;;;;;25.90;33.37;100099.88;4972999;28;19914;-59
2021/07/21 09:22:28;;;;;;;;;;;;;;;25.85;33.91;100092.59;4973903;28;19925;-59
2021/07/21 09:25:12;;;;;;;;;;;;;;;24.66;35.31;100102.63;4974146;28;19993;-59
2021/07/21 09:27:38;;;;;;;;;;;;;;;24.88;34.16;100098.19;4973738;28;19924;-59
2021/07/21 09:30:04;;;;;;;;;;;;;;;24.57;33.95;100099.03;4973900;28;19914;-59
2021/07/21 09:32:30;;;;;;;;;;;;;;;25.26;34.03;100104.00;4956988;28;19965;-60
2021/07/21 09:34:55;;;;;;;;;;;;;;;23.79;37.26;100102.03;4974142;28;20367;-60
2021/07/21 09:37:21;;;;;;;;;;;;;;;24.86;35.17;100101.28;4977207;28;19936;-59
2021/07/21 09:39:50;;;;;;;;;;;;;;;25.14;34.08;100095.56;4977766;28;19918;-60
2021/07/21 09:42:15;;;;;;;;;;;;;;;24.32;34.82;100100.47;4975893;28;19924;-60
2021/07/21 09:44:44;;;;;;;;;;;;;;;24.02;34.89;100102.06;4977625;28;20012;-60
2021/07/21 09:47:10;;;;;;;;;;;;;;;24.16;34.33;100100.03;4975900;28;20008;-59
2021/07/21 09:49:41;;;;;;;;;;;;;;;26.77;30.20;100088.72;4977652;28;20017;-60
2021/07/21 09:52:13;;;;;;;;;;;;;;;24.63;34.65;100097.75;4977053;28;20368;-60
2021/07/21 09:54:38;;;;;;;;;;;;;;;24.51;33.91;100097.53;4977715;28;20005;-60
2021/07/21 09:57:10;;;;;;;;;;;;;;;24.42;34.76;100097.47;4977004;28;19942;-60
2021/07/21 09:59:36;;;;;;;;;;;;;;;24.44;35.88;100094.44;4977481;28;19918;-60
2021/07/21 10:02:16;;;;;;;;;;;;;;;23.77;36.42;100101.53;4977088;28;19918;-61
2021/07/21 10:04:45;;;;;;;;;;;;;;;24.53;33.29;100090.63;4977752;28;19963;-60
2021/07/21 10:10:15;;;;;;;;;;;;;;;26.40;31.02;100089.13;4944469;29;19914;-60
2021/07/21 10:12:41;;;;;;;;;;;;;;;25.38;34.48;100092.38;4955737;29;20452;-60
2021/07/21 10:15:06;;;;;;;;;;;;;;;25.66;33.35;100089.34;4965048;28;19997;-60
2021/07/21 10:17:31;;;;;;;;;;;;;;;24.95;33.83;100098.53;4977224;28;19914;-60
2021/07/21 10:19:57;;;;;;;;;;;;;;;25.27;34.62;100093.81;4977106;28;20395;-60
2021/07/21 10:22:28;;;;;;;;;;;;;;;25.73;33.31;100086.91;4976511;28;19922;-60
2021/07/21 10:24:53;;;;;;;;;;;;;;;26.11;33.03;100072.53;4976948;28;19918;-60
2021/07/21 10:27:21;;;;;;;;;;;;;;;25.46;33.04;100083.38;4976253;28;19918;-60
2021/07/21 10:29:47;;;;;;;;;;;;;;;23.35;37.36;100080.84;4979465;28;19914;-60
2021/07/21 10:32:15;;;;;;;;;;;;;;;24.72;35.61;100082.19;4976671;28;19929;-60
2021/07/21 10:34:43;;;;;;;;;;;;;;;24.64;35.14;100079.41;4976907;28;19914;-60
2021/07/21 10:37:12;;;;;;;;;;;;;;;24.60;35.08;100073.75;4976295;28;19914;-60
2021/07/21 10:39:38;;;;;;;;;;;;;;;24.60;35.36;100078.41;4976661;28;20383;-60
2021/07/21 10:42:08;;;;;;;;;;;;;;;23.78;35.80;100075.78;4976279;28;19914;-60
2021/07/21 10:44:33;;;;;;;;;;;;;;;23.48;36.24;100064.38;4975605;28;19917;-60
2021/07/21 10:47:01;;;;;;;;;;;;;;;23.95;36.33;100060.63;4975465;28;20432;-60
2021/07/21 10:49:31;;;;;;;;;;;;;;;24.22;36.29;100076.91;4975908;28;19918;-60
2021/07/21 11:00:09;;;;;;;;;;;;;;;25.51;33.58;100060.44;4976340;28;19948;-60
2021/07/21 11:02:35;;;;;;;;;;;;;;;25.59;33.89;100065.94;4974620;28;19914;-60
2021/07/21 11:05:03;;;;;;;;;;;;;;;24.88;34.66;100062.56;4975690;28;19916;-61
2021/07/21 11:07:47;;;;;;;;;;;;;;;25.10;34.48;100061.66;4976257;28;19918;-60
2021/07/21 11:10:12;;;;;;;;;;;;;;;23.78;34.93;100069.50;4975620;28;20296;-60
2021/07/21 11:12:47;;;;;;;;;;;;;;;24.91;33.59;100057.25;4976029;28;19910;-60
2021/07/21 11:15:32;;;;;;;;;;;;;;;26.67;30.45;100057.69;4975473;28;19921;-60
2021/07/21 11:18:16;;;;;;;;;;;;;;;24.54;32.99;100061.31;4975958;28;19906;-60
2021/07/21 11:21:00;;;;;;;;;;;;;;;24.22;33.95;100071.41;4975535;28;20030;-60
2021/07/21 11:23:44;;;;;;;;;;;;;;;23.79;34.37;100058.25;4975802;28;19915;-60
2021/07/21 11:26:28;;;;;;;;;;;;;;;24.58;33.21;100056.00;4975327;28;20321;-60
2021/07/21 11:28:53;;;;;;;;;;;;;;;23.93;33.64;100062.84;4975779;28;19917;-60
2021/07/21 11:31:18;;;;;;;;;;;;;;;23.76;33.44;100053.38;4975302;28;20300;-60
2021/07/21 11:33:46;;;;;;;;;;;;;;;24.09;32.12;100058.63;4975650;28;20415;-60
2021/07/21 11:36:12;;;;;;;;;;;;;;;23.77;34.37;100065.16;4974975;28;19989;-60
2021/07/21 11:38:45;;;;;;;;;;;;;;;23.68;34.62;100057.63;4975716;28;19918;-60
2021/07/21 11:41:10;;;;;;;;;;;;;;;24.20;32.61;100051.75;4975187;28;19925;-60
2021/07/21 11:43:35;;;;;;;;;;;;;;;25.40;30.90;100049.78;4974099;28;20016;-59
2021/07/21 11:46:07;;;;;;;;;;;;;;;26.59;30.41;100044.00;4974746;28;19918;-60
2021/07/21 11:48:32;;;;;;;;;;;;;;;25.60;31.66;100042.84;4974609;28;19921;-60
2021/07/21 11:50:58;;;;;;;;;;;;;;;25.27;31.38;100039.75;4974768;28;19926;-60
2021/07/21 11:53:23;;;;;;;;;;;;;;;25.56;31.85;100046.53;4975016;28;19922;-60
2021/07/21 11:55:51;;;;;;;;;;;;;;;24.98;32.24;100041.13;4974728;28;19925;-59
2021/07/21 11:58:17;;;;;;;;;;;;;;;26.11;31.48;100040.41;4974867;28;19967;-60
2021/07/21 12:00:51;;;;;;;;;;;;;;;26.31;31.33;100038.91;4974594;28;20020;-60
2021/07/21 12:03:17;;;;;;;;;;;;;;;25.33;32.06;100037.66;4974970;28;19914;-60
2021/07/21 12:05:54;;;;;;;;;;;;;;;25.69;30.80;100029.13;4974268;28;19922;-60
2021/07/21 12:08:25;;;;;;;;;;;;;;;24.79;32.51;100045.25;4975050;28;19914;-60
2021/07/21 12:10:51;;;;;;;;;;;;;;;23.28;33.89;100040.22;4973608;28;19927;-61
2021/07/21 12:13:22;;;;;;;;;;;;;;;24.32;32.69;100032.00;4975179;28;20316;-60
2021/07/21 12:16:02;;;;;;;;;;;;;;;25.51;31.47;100033.81;4974423;28;20008;-61
2021/07/21 12:18:27;;;;;;;;;;;;;;;25.67;31.17;100027.84;4975067;28;20310;-60
2021/07/21 12:21:04;;;;;;;;;;;;;;;26.53;29.05;100020.56;4974792;28;20509;-60
2021/07/21 12:23:30;;;;;;;;;;;;;;;26.01;28.69;100022.31;4975127;28;19914;-60
2021/07/21 12:25:55;;;;;;;;;;;;;;;24.93;30.89;100027.56;4974492;28;19918;-60
2021/07/21 12:28:20;;;;;;;;;;;;;;;23.51;31.66;100021.13;4974536;28;20265;-60
2021/07/21 12:30:47;;;;;;;;;;;;;;;24.56;31.65;100025.34;4976835;28;19918;-60
2021/07/21 12:33:13;;;;;;;;;;;;;;;24.41;34.15;100026.56;4974732;28;19920;-60
2021/07/21 12:35:41;;;;;;;;;;;;;;;23.77;35.05;100026.84;4972880;28;20008;-60
2021/07/21 12:38:06;;;;;;;;;;;;;;;24.00;35.29;100035.84;4974479;28;19914;-60
2021/07/21 12:40:38;;;;;;;;;;;;;;;23.44;35.12;100013.38;4972918;28;20287;-60
2021/07/21 12:43:03;;;;;;;;;;;;;;;25.11;31.92;100009.22;4973509;28;19933;-60
2021/07/21 12:45:32;;;;;;;;;;;;;;;24.82;32.44;100011.75;4973030;28;19914;-60
2021/07/21 12:47:58;;;;;;;;;;;;;;;25.20;32.37;100012.00;4974521;28;19914;-60
2021/07/21 12:50:27;;;;;;;;;;;;;;;25.58;32.60;100008.63;4973947;28;19922;-60
2021/07/21 12:52:58;;;;;;;;;;;;;;;24.68;33.90;100018.13;4974517;28;20123;-60
2021/07/21 12:55:34;;;;;;;;;;;;;;;25.46;32.81;100006.53;4974255;28;20005;-60
2021/07/21 12:58:08;;;;;;;;;;;;;;;26.02;32.77;100012.94;4974380;28;20272;-60
2021/07/21 13:00:33;;;;;;;;;;;;;;;24.82;32.54;100014.50;4974097;28;19921;-61